createdAt,value
2018-09-24T00:00:45.123Z,1013.85
2018-09-24T00:01:45.409Z,1013.87
2018-09-24T00:02:45.717Z,1013.89
2018-09-24T00:03:46.043Z,1013.90
2018-09-24T00:04:46.552Z,1013.92
2018-09-24T00:05:46.560Z,1013.95
2018-09-24T00:06:46.874Z,1013.95
2018-09-24T00:07:47.249Z,1013.98
2018-09-24T00:08:47.602Z,1014.00
2018-09-24T00:09:48.397Z,1014.01
2018-09-24T00:10:49.221Z,1014.05
2018-09-24T00:11:49.545Z,1014.08
2018-09-24T00:12:50.053Z,1014.11
2018-09-24T00:13:50.470Z,1014.13
2018-09-24T00:14:50.890Z,1014.16
2018-09-24T00:15:51.160Z,1014.18
2018-09-24T00:16:51.362Z,1014.21
2018-09-24T00:17:51.725Z,1014.23
2018-09-24T00:18:51.736Z,1014.25
2018-09-24T00:19:51.937Z,1014.27
2018-09-24T00:20:52.081Z,1014.30
2018-09-24T00:21:51.736Z,1014.32
2018-09-24T00:22:52.410Z,1014.34
2018-09-24T00:23:52.571Z,1014.36
2018-09-24T00:24:52.677Z,1014.36
2018-09-24T00:25:54.069Z,1014.36
2018-09-24T00:26:53.230Z,1014.37
2018-09-24T00:27:53.612Z,1014.37
2018-09-24T00:28:53.795Z,1014.40
2018-09-24T00:29:54.096Z,1014.43
2018-09-24T00:30:53.901Z,1014.43
2018-09-24T00:31:54.444Z,1014.48
2018-09-24T00:32:54.397Z,1014.52
2018-09-24T00:33:54.823Z,1014.56
2018-09-24T00:34:55.149Z,1014.60
2018-09-24T00:35:55.450Z,1014.64
2018-09-24T00:36:55.805Z,1014.68
2018-09-24T00:37:56.442Z,1014.70
2018-09-24T00:38:56.223Z,1014.73
2018-09-24T00:39:56.678Z,1014.75
2018-09-24T00:40:57.057Z,1014.81
2018-09-24T00:41:57.892Z,1014.84
2018-09-24T00:42:57.745Z,1014.88
2018-09-24T00:43:58.161Z,1014.90
2018-09-24T00:44:58.484Z,1014.93
2018-09-24T00:45:58.811Z,1014.94
2018-09-24T00:46:59.187Z,1014.96
2018-09-24T00:47:59.868Z,1014.97
2018-09-24T00:48:59.627Z,1014.98
2018-09-24T00:50:00.012Z,1015.01
2018-09-24T00:51:00.399Z,1015.02
2018-09-24T00:52:00.897Z,1015.03
2018-09-24T00:53:00.980Z,1015.05
2018-09-24T00:54:01.095Z,1015.05
2018-09-24T00:55:01.143Z,1015.06
2018-09-24T00:56:01.175Z,1015.08
2018-09-24T00:57:01.566Z,1015.09
2018-09-24T00:58:02.281Z,1015.10
2018-09-24T00:59:02.492Z,1015.09
2018-09-24T01:00:02.855Z,1015.09
2018-09-24T01:01:02.895Z,1015.09
2018-09-24T01:02:02.984Z,1015.09
2018-09-24T01:03:03.594Z,1015.10
2018-09-24T01:04:02.897Z,1015.09
2018-09-24T01:05:04.325Z,1015.07
2018-09-24T01:06:04.429Z,1015.10
2018-09-24T01:07:04.333Z,1015.12
2018-09-24T01:08:05.168Z,1015.12
2018-09-24T01:09:05.270Z,1015.15
2018-09-24T01:10:06.098Z,1015.18
2018-09-24T01:11:11.949Z,1015.22
2018-09-24T01:13:06.156Z,1015.23
2018-09-24T01:14:06.432Z,1015.26
2018-09-24T01:15:06.741Z,1015.28
2018-09-24T01:16:07.039Z,1015.30
2018-09-24T01:17:06.863Z,1015.32
2018-09-24T01:18:07.359Z,1015.37
2018-09-24T01:19:07.477Z,1015.40
2018-09-24T01:20:07.927Z,1015.43
2018-09-24T01:21:07.774Z,1015.45
2018-09-24T01:22:08.421Z,1015.46
2018-09-24T01:23:08.624Z,1015.49
2018-09-24T01:24:08.412Z,1015.52
2018-09-24T01:25:09.024Z,1015.55
2018-09-24T01:26:09.184Z,1015.60
2018-09-24T01:27:09.626Z,1015.63
2018-09-24T01:28:09.566Z,1015.63
2018-09-24T01:29:09.839Z,1015.65
2018-09-24T01:30:10.150Z,1015.66
2018-09-24T01:31:10.508Z,1015.69
2018-09-24T01:32:10.935Z,1015.72
2018-09-24T01:33:11.460Z,1015.74
2018-09-24T01:34:11.602Z,1015.75
2018-09-24T01:35:11.413Z,1015.77
2018-09-24T01:36:11.671Z,1015.82
2018-09-24T01:37:12.120Z,1015.83
2018-09-24T01:38:12.420Z,1015.83
2018-09-24T01:39:12.863Z,1015.86
2018-09-24T01:40:13.445Z,1015.86
2018-09-24T01:41:13.353Z,1015.87
2018-09-24T01:42:13.693Z,1015.89
2018-09-24T01:43:14.502Z,1015.92
2018-09-24T01:44:14.327Z,1015.96
2018-09-24T01:45:15.013Z,1015.99
2018-09-24T01:46:14.899Z,1016.00
2018-09-24T01:47:15.166Z,1016.03
2018-09-24T01:48:15.486Z,1016.04
2018-09-24T01:49:15.794Z,1016.05
2018-09-24T01:50:16.383Z,1016.06
2018-09-24T01:51:16.226Z,1016.06
2018-09-24T01:52:16.495Z,1016.05
2018-09-24T01:53:17.166Z,1016.05
2018-09-24T01:54:17.177Z,1016.05
2018-09-24T01:55:17.555Z,1016.06
2018-09-24T01:56:17.508Z,1016.05
2018-09-24T01:57:17.797Z,1016.06
2018-09-24T01:58:18.806Z,1016.08
2018-09-24T01:59:19.111Z,1016.07
2018-09-24T02:00:19.523Z,1016.11
2018-09-24T02:01:19.841Z,1016.12
2018-09-24T02:02:19.948Z,1016.12
2018-09-24T02:03:20.375Z,1016.12
2018-09-24T02:04:20.680Z,1016.14
2018-09-24T02:05:21.095Z,1016.15
2018-09-24T02:06:21.307Z,1016.16
2018-09-24T02:07:21.519Z,1016.17
2018-09-24T02:08:21.843Z,1016.19
2018-09-24T02:09:21.859Z,1016.21
2018-09-24T02:10:21.842Z,1016.21
2018-09-24T02:12:21.963Z,1016.19
2018-09-24T02:13:22.180Z,1016.21
2018-09-24T02:14:22.411Z,1016.23
2018-09-24T02:15:22.572Z,1016.27
2018-09-24T02:16:22.769Z,1016.27
2018-09-24T02:17:22.936Z,1016.31
2018-09-24T02:18:23.091Z,1016.34
2018-09-24T02:19:23.233Z,1016.37
2018-09-24T02:20:23.439Z,1016.40
2018-09-24T02:21:23.799Z,1016.42
2018-09-24T02:22:23.914Z,1016.44
2018-09-24T02:23:24.186Z,1016.46
2018-09-24T02:24:24.113Z,1016.47
2018-09-24T02:25:24.445Z,1016.48
2018-09-24T02:26:24.848Z,1016.51
2018-09-24T02:27:25.307Z,1016.52
2018-09-24T02:28:25.530Z,1016.53
2018-09-24T02:29:25.890Z,1016.55
2018-09-24T02:30:26.146Z,1016.59
2018-09-24T02:31:26.510Z,1016.64
2018-09-24T02:32:26.895Z,1016.67
2018-09-24T02:33:27.505Z,1016.70
2018-09-24T02:34:27.371Z,1016.73
2018-09-24T02:35:27.670Z,1016.75
2018-09-24T02:36:28.045Z,1016.77
2018-09-24T02:37:28.397Z,1016.79
2018-09-24T02:38:28.772Z,1016.82
2018-09-24T02:39:29.073Z,1016.84
2018-09-24T02:40:29.445Z,1016.86
2018-09-24T02:41:29.729Z,1016.87
2018-09-24T02:42:30.070Z,1016.88
2018-09-24T02:43:30.381Z,1016.90
2018-09-24T02:44:30.643Z,1016.91
2018-09-24T02:45:31.105Z,1016.90
2018-09-24T02:46:31.371Z,1016.90
2018-09-24T02:47:31.838Z,1016.91
2018-09-24T02:48:32.171Z,1016.93
2018-09-24T02:49:33.163Z,1016.92
2018-09-24T02:50:33.477Z,1016.93
2018-09-24T02:51:34.300Z,1016.93
2018-09-24T02:52:34.611Z,1016.93
2018-09-24T02:53:34.731Z,1016.93
2018-09-24T02:54:35.137Z,1016.94
2018-09-24T02:55:35.553Z,1016.95
2018-09-24T02:56:35.954Z,1016.99
2018-09-24T02:57:36.083Z,1016.99
2018-09-24T02:58:36.030Z,1017.01
2018-09-24T02:59:36.510Z,1017.04
2018-09-24T03:00:36.711Z,1017.08
2018-09-24T03:01:36.925Z,1017.11
2018-09-24T03:02:37.020Z,1017.11
2018-09-24T03:03:37.223Z,1017.14
2018-09-24T03:04:37.399Z,1017.18
2018-09-24T03:05:37.667Z,1017.22
2018-09-24T03:06:37.838Z,1017.23
2018-09-24T03:07:38.293Z,1017.25
2018-09-24T03:08:38.401Z,1017.28
2018-09-24T03:09:38.491Z,1017.30
2018-09-24T03:10:38.581Z,1017.30
2018-09-24T03:11:38.943Z,1017.30
2018-09-24T03:12:38.904Z,1017.32
2018-09-24T03:13:39.186Z,1017.32
2018-09-24T03:14:39.295Z,1017.32
2018-09-24T03:15:39.378Z,1017.34
2018-09-24T03:16:39.479Z,1017.36
2018-09-24T03:17:39.504Z,1017.37
2018-09-24T03:18:39.524Z,1017.40
2018-09-24T03:19:39.580Z,1017.41
2018-09-24T03:20:39.941Z,1017.42
2018-09-24T03:21:40.305Z,1017.41
2018-09-24T03:22:40.820Z,1017.44
2018-09-24T03:23:40.634Z,1017.41
2018-09-24T03:24:41.043Z,1017.42
2018-09-24T03:25:41.404Z,1017.40
2018-09-24T03:26:41.739Z,1017.41
2018-09-24T03:27:42.125Z,1017.41
2018-09-24T03:28:42.270Z,1017.41
2018-09-24T03:29:42.855Z,1017.41
2018-09-24T03:30:42.784Z,1017.43
2018-09-24T03:31:43.251Z,1017.44
2018-09-24T03:32:43.613Z,1017.45
2018-09-24T03:33:44.035Z,1017.46
2018-09-24T03:34:44.561Z,1017.49
2018-09-24T03:35:44.444Z,1017.51
2018-09-24T03:36:45.005Z,1017.51
2018-09-24T03:37:45.084Z,1017.52
2018-09-24T03:38:45.589Z,1017.52
2018-09-24T03:39:45.421Z,1017.52
2018-09-24T03:40:45.816Z,1017.52
2018-09-24T03:41:46.303Z,1017.52
2018-09-24T03:42:46.649Z,1017.54
2018-09-24T03:43:46.999Z,1017.53
2018-09-24T03:44:47.333Z,1017.53
2018-09-24T03:45:47.624Z,1017.54
2018-09-24T03:46:48.075Z,1017.55
2018-09-24T03:47:48.989Z,1017.53
2018-09-24T03:48:49.532Z,1017.51
2018-09-24T03:49:49.835Z,1017.51
2018-09-24T03:50:50.256Z,1017.52
2018-09-24T03:52:50.818Z,1017.54
2018-09-24T03:53:51.023Z,1017.54
2018-09-24T03:54:51.198Z,1017.58
2018-09-24T03:55:51.515Z,1017.59
2018-09-24T03:56:51.446Z,1017.61
2018-09-24T03:57:51.935Z,1017.64
2018-09-24T03:58:52.057Z,1017.66
2018-09-24T03:59:52.027Z,1017.67
2018-09-24T04:00:52.314Z,1017.69
2018-09-24T04:01:52.544Z,1017.70
2018-09-24T04:02:52.647Z,1017.74
2018-09-24T04:03:52.824Z,1017.76
2018-09-24T04:04:53.075Z,1017.77
2018-09-24T04:05:53.519Z,1017.78
2018-09-24T04:06:53.896Z,1017.81
2018-09-24T04:07:54.255Z,1017.85
2018-09-24T04:08:54.448Z,1017.87
2018-09-24T04:09:54.621Z,1017.91
2018-09-24T04:10:54.549Z,1017.94
2018-09-24T04:11:54.563Z,1017.93
2018-09-24T04:12:54.495Z,1017.96
2018-09-24T04:13:54.967Z,1017.98
2018-09-24T04:14:55.392Z,1018.01
2018-09-24T04:15:55.912Z,1018.05
2018-09-24T04:16:55.844Z,1018.08
2018-09-24T04:17:56.317Z,1018.09
2018-09-24T04:18:56.861Z,1018.10
2018-09-24T04:19:56.783Z,1018.12
2018-09-24T04:20:57.311Z,1018.13
2018-09-24T04:21:57.241Z,1018.13
2018-09-24T04:22:57.676Z,1018.14
2018-09-24T04:23:58.173Z,1018.16
2018-09-24T04:24:59.002Z,1018.16
2018-09-24T04:25:59.308Z,1018.17
2018-09-24T04:26:59.220Z,1018.18
2018-09-24T04:27:59.739Z,1018.20
2018-09-24T04:28:59.759Z,1018.22
2018-09-24T04:29:59.670Z,1018.22
2018-09-24T04:31:00.154Z,1018.23
2018-09-24T04:32:00.725Z,1018.25
2018-09-24T04:33:00.940Z,1018.25
2018-09-24T04:34:00.898Z,1018.29
2018-09-24T04:35:01.514Z,1018.30
2018-09-24T04:36:02.090Z,1018.32
2018-09-24T04:37:01.526Z,1018.35
2018-09-24T04:38:01.960Z,1018.38
2018-09-24T04:39:02.856Z,1018.39
2018-09-24T04:40:02.975Z,1018.39
2018-09-24T04:41:02.894Z,1018.41
2018-09-24T04:42:04.510Z,1018.42
2018-09-24T04:43:04.314Z,1018.42
2018-09-24T04:44:04.417Z,1018.43
2018-09-24T04:45:04.846Z,1018.43
2018-09-24T04:46:05.152Z,1018.43
2018-09-24T04:47:05.462Z,1018.45
2018-09-24T04:48:05.794Z,1018.46
2018-09-24T04:49:06.350Z,1018.47
2018-09-24T04:50:05.350Z,1018.49
2018-09-24T04:51:06.202Z,1018.50
2018-09-24T04:52:06.825Z,1018.52
2018-09-24T04:53:06.634Z,1018.54
2018-09-24T04:54:07.130Z,1018.55
2018-09-24T04:55:07.221Z,1018.57
2018-09-24T04:56:07.334Z,1018.61
2018-09-24T04:57:07.333Z,1018.61
2018-09-24T04:58:07.636Z,1018.61
2018-09-24T04:59:07.883Z,1018.61
2018-09-24T05:00:08.117Z,1018.62
2018-09-24T05:01:08.060Z,1018.63
2018-09-24T05:02:08.894Z,1018.62
2018-09-24T05:03:09.067Z,1018.64
2018-09-24T05:04:09.614Z,1018.65
2018-09-24T05:05:09.878Z,1018.67
2018-09-24T05:06:09.785Z,1018.70
2018-09-24T05:07:09.762Z,1018.71
2018-09-24T05:08:10.279Z,1018.72
2018-09-24T05:09:10.239Z,1018.73
2018-09-24T05:10:11.013Z,1018.75
2018-09-24T05:11:11.238Z,1018.78
2018-09-24T05:12:11.199Z,1018.79
2018-09-24T05:13:11.644Z,1018.80
2018-09-24T05:14:12.113Z,1018.82
2018-09-24T05:15:12.973Z,1018.84
2018-09-24T05:16:13.074Z,1018.83
2018-09-24T05:17:13.199Z,1018.85
2018-09-24T05:18:13.172Z,1018.86
2018-09-24T05:19:13.684Z,1018.89
2018-09-24T05:20:13.778Z,1018.89
2018-09-24T05:21:14.488Z,1018.90
2018-09-24T05:22:14.482Z,1018.90
2018-09-24T05:23:14.968Z,1018.92
2018-09-24T05:24:15.457Z,1018.94
2018-09-24T05:25:16.557Z,1018.95
2018-09-24T05:26:16.262Z,1018.98
2018-09-24T05:27:16.360Z,1018.98
2018-09-24T05:28:16.575Z,1019.00
2018-09-24T05:29:16.631Z,1019.02
2018-09-24T05:30:17.317Z,1019.04
2018-09-24T05:31:16.849Z,1019.02
2018-09-24T05:32:16.878Z,1019.04
2018-09-24T05:33:16.849Z,1019.07
2018-09-24T05:34:17.386Z,1019.07
2018-09-24T05:35:17.677Z,1019.07
2018-09-24T05:36:17.693Z,1019.11
2018-09-24T05:37:17.704Z,1019.12
2018-09-24T05:38:19.009Z,1019.14
2018-09-24T05:39:18.997Z,1019.16
2018-09-24T05:40:19.640Z,1019.19
2018-09-24T05:41:20.000Z,1019.24
2018-09-24T05:42:20.361Z,1019.27
2018-09-24T05:43:20.780Z,1019.31
2018-09-24T05:44:21.423Z,1019.33
2018-09-24T05:45:21.412Z,1019.35
2018-09-24T05:46:21.940Z,1019.38
2018-09-24T05:47:21.832Z,1019.42
2018-09-24T05:48:22.020Z,1019.44
2018-09-24T05:49:22.018Z,1019.46
2018-09-24T05:50:22.160Z,1019.48
2018-09-24T05:51:22.142Z,1019.50
2018-09-24T05:52:22.404Z,1019.55
2018-09-24T05:53:22.769Z,1019.55
2018-09-24T05:54:23.002Z,1019.55
2018-09-24T05:55:23.246Z,1019.56
2018-09-24T05:56:23.979Z,1019.57
2018-09-24T05:57:23.952Z,1019.60
2018-09-24T05:58:24.205Z,1019.61
2018-09-24T05:59:24.483Z,1019.62
2018-09-24T06:00:24.785Z,1019.66
2018-09-24T06:01:25.011Z,1019.70
2018-09-24T06:02:24.960Z,1019.71
2018-09-24T06:03:25.654Z,1019.73
2018-09-24T06:04:25.709Z,1019.75
2018-09-24T06:05:25.658Z,1019.78
2018-09-24T06:06:26.566Z,1019.81
2018-09-24T06:07:26.595Z,1019.81
2018-09-24T06:08:26.618Z,1019.83
2018-09-24T06:09:26.572Z,1019.86
2018-09-24T06:10:27.212Z,1019.86
2018-09-24T06:11:27.230Z,1019.88
2018-09-24T06:12:27.297Z,1019.88
2018-09-24T06:13:27.355Z,1019.90
2018-09-24T06:14:27.259Z,1019.92
2018-09-24T06:15:27.820Z,1019.92
2018-09-24T06:16:27.785Z,1019.94
2018-09-24T06:17:27.859Z,1019.93
2018-09-24T06:18:28.611Z,1019.97
2018-09-24T06:19:28.614Z,1019.98
2018-09-24T06:20:28.621Z,1020.01
2018-09-24T06:21:28.631Z,1020.04
2018-09-24T06:22:29.433Z,1020.08
2018-09-24T06:23:29.466Z,1020.12
2018-09-24T06:24:29.520Z,1020.13
2018-09-24T06:25:29.480Z,1020.13
2018-09-24T06:26:30.358Z,1020.14
2018-09-24T06:27:30.337Z,1020.16
2018-09-24T06:28:30.907Z,1020.18
2018-09-24T06:29:30.831Z,1020.21
2018-09-24T06:30:31.348Z,1020.22
2018-09-24T06:31:31.454Z,1020.25
2018-09-24T06:32:31.479Z,1020.28
2018-09-24T06:33:31.388Z,1020.29
2018-09-24T06:34:31.892Z,1020.30
2018-09-24T06:35:31.930Z,1020.30
2018-09-24T06:36:31.921Z,1020.29
2018-09-24T06:37:32.425Z,1020.30
2018-09-24T06:38:32.427Z,1020.32
2018-09-24T06:39:32.440Z,1020.33
2018-09-24T06:40:32.481Z,1020.35
2018-09-24T06:41:32.452Z,1020.37
2018-09-24T06:42:33.043Z,1020.39
2018-09-24T06:43:33.561Z,1020.40
2018-09-24T06:44:33.569Z,1020.43
2018-09-24T06:45:33.576Z,1020.45
2018-09-24T06:46:34.196Z,1020.47
2018-09-24T06:47:34.524Z,1020.50
2018-09-24T06:48:34.823Z,1020.51
2018-09-24T06:49:35.606Z,1020.52
2018-09-24T06:50:35.758Z,1020.54
2018-09-24T06:51:35.969Z,1020.55
2018-09-24T06:52:36.016Z,1020.56
2018-09-24T06:53:36.089Z,1020.57
2018-09-24T06:54:36.067Z,1020.60
2018-09-24T06:55:36.207Z,1020.60
2018-09-24T06:56:36.844Z,1020.61
2018-09-24T06:57:36.740Z,1020.62
2018-09-24T06:58:36.812Z,1020.62
2018-09-24T06:59:37.015Z,1020.65
2018-09-24T07:00:37.131Z,1020.69
2018-09-24T07:01:37.216Z,1020.72
2018-09-24T07:02:37.231Z,1020.73
2018-09-24T07:03:37.511Z,1020.78
2018-09-24T07:04:37.783Z,1020.80
2018-09-24T07:05:38.068Z,1020.81
2018-09-24T07:06:38.528Z,1020.84
2018-09-24T07:07:38.429Z,1020.85
2018-09-24T07:08:38.799Z,1020.85
2018-09-24T07:09:39.241Z,1020.86
2018-09-24T07:10:39.358Z,1020.89
2018-09-24T07:11:39.343Z,1020.91
2018-09-24T07:12:39.840Z,1020.92
2018-09-24T07:13:40.603Z,1020.93
2018-09-24T07:14:40.554Z,1020.95
2018-09-24T07:15:41.070Z,1020.95
2018-09-24T07:16:41.501Z,1020.98
2018-09-24T07:17:41.501Z,1020.99
2018-09-24T07:18:42.084Z,1021.01
2018-09-24T07:19:42.272Z,1021.05
2018-09-24T07:20:42.395Z,1021.07
2018-09-24T07:21:42.360Z,1021.10
2018-09-24T07:22:42.875Z,1021.13
2018-09-24T07:23:43.299Z,1021.13
2018-09-24T07:24:43.843Z,1021.14
2018-09-24T07:25:43.952Z,1021.14
2018-09-24T07:26:44.287Z,1021.15
2018-09-24T07:27:44.531Z,1021.16
2018-09-24T07:28:44.440Z,1021.18
2018-09-24T07:29:44.449Z,1021.18
2018-09-24T07:30:44.449Z,1021.19
2018-09-24T07:31:44.881Z,1021.20
2018-09-24T07:32:45.398Z,1021.19
2018-09-24T07:33:45.383Z,1021.22
2018-09-24T07:34:45.908Z,1021.23
2018-09-24T07:35:45.955Z,1021.25
2018-09-24T07:36:46.254Z,1021.27
2018-09-24T07:37:46.303Z,1021.28
2018-09-24T07:38:46.298Z,1021.30
2018-09-24T07:39:47.011Z,1021.33
2018-09-24T07:40:47.109Z,1021.36
2018-09-24T07:41:47.131Z,1021.36
2018-09-24T07:42:47.277Z,1021.37
2018-09-24T07:43:47.303Z,1021.37
2018-09-24T07:44:47.307Z,1021.39
2018-09-24T07:45:47.412Z,1021.40
2018-09-24T07:46:48.520Z,1021.43
2018-09-24T07:47:48.113Z,1021.44
2018-09-24T07:48:48.538Z,1021.45
2018-09-24T07:49:49.561Z,1021.46
2018-09-24T07:50:49.570Z,1021.47
2018-09-24T07:51:49.474Z,1021.48
2018-09-24T07:52:50.095Z,1021.50
2018-09-24T07:53:50.007Z,1021.51
2018-09-24T07:54:50.618Z,1021.52
2018-09-24T07:55:50.726Z,1021.53
2018-09-24T07:56:50.628Z,1021.55
2018-09-24T07:57:51.025Z,1021.57
2018-09-24T07:58:52.688Z,1021.58
2018-09-24T07:59:51.389Z,1021.61
2018-09-24T08:00:51.966Z,1021.63
2018-09-24T08:01:51.890Z,1021.64
2018-09-24T08:02:51.963Z,1021.65
2018-09-24T08:03:52.003Z,1021.67
2018-09-24T08:04:51.999Z,1021.70
2018-09-24T08:05:52.466Z,1021.70
2018-09-24T08:06:52.898Z,1021.71
2018-09-24T08:07:53.263Z,1021.71
2018-09-24T08:08:53.622Z,1021.72
2018-09-24T08:09:54.345Z,1021.74
2018-09-24T08:10:54.055Z,1021.74
2018-09-24T08:11:54.160Z,1021.74
2018-09-24T08:12:54.332Z,1021.74
2018-09-24T08:13:54.525Z,1021.75
2018-09-24T08:14:54.714Z,1021.75
2018-09-24T08:15:54.732Z,1021.74
2018-09-24T08:16:54.816Z,1021.77
2018-09-24T08:17:54.916Z,1021.78
2018-09-24T08:18:54.936Z,1021.78
2018-09-24T08:19:54.899Z,1021.80
2018-09-24T08:20:55.767Z,1021.81
2018-09-24T08:21:55.641Z,1021.81
2018-09-24T08:22:56.302Z,1021.82
2018-09-24T08:23:56.526Z,1021.81
2018-09-24T08:24:56.451Z,1021.82
2018-09-24T08:25:56.946Z,1021.82
2018-09-24T08:26:57.799Z,1021.81
2018-09-24T08:27:57.822Z,1021.82
2018-09-24T08:28:58.049Z,1021.82
2018-09-24T08:29:57.836Z,1021.81
2018-09-24T08:30:58.397Z,1021.81
2018-09-24T08:31:58.361Z,1021.82
2018-09-24T08:32:58.762Z,1021.83
2018-09-24T08:33:59.377Z,1021.84
2018-09-24T08:34:59.296Z,1021.85
2018-09-24T08:35:59.818Z,1021.85
2018-09-24T08:37:00.211Z,1021.87
2018-09-24T08:38:00.290Z,1021.85
2018-09-24T08:39:00.347Z,1021.86
2018-09-24T08:40:00.291Z,1021.88
2018-09-24T08:42:01.028Z,1021.89
2018-09-24T08:43:01.111Z,1021.90
2018-09-24T08:44:01.132Z,1021.92
2018-09-24T08:45:01.286Z,1021.95
2018-09-24T08:46:01.219Z,1021.95
2018-09-24T08:47:02.618Z,1021.95
2018-09-24T08:48:02.327Z,1021.95
2018-09-24T08:49:02.560Z,1021.96
2018-09-24T08:50:03.066Z,1021.96
2018-09-24T08:51:02.830Z,1021.99
2018-09-24T08:52:03.382Z,1022.00
2018-09-24T08:53:02.784Z,1022.01
2018-09-24T08:54:04.415Z,1022.00
2018-09-24T08:55:04.227Z,1022.01
2018-09-24T08:56:04.633Z,1022.01
2018-09-24T08:57:05.096Z,1022.03
2018-09-24T08:58:05.364Z,1022.07
2018-09-24T08:59:05.788Z,1022.07
2018-09-24T09:00:05.693Z,1022.12
2018-09-24T09:01:06.033Z,1022.13
2018-09-24T09:02:06.375Z,1022.13
2018-09-24T09:03:06.838Z,1022.14
2018-09-24T09:04:07.042Z,1022.16
2018-09-24T09:05:07.215Z,1022.17
2018-09-24T09:06:07.264Z,1022.17
2018-09-24T09:07:07.328Z,1022.19
2018-09-24T09:08:07.337Z,1022.19
2018-09-24T09:09:07.427Z,1022.20
2018-09-24T09:10:07.384Z,1022.25
2018-09-24T09:11:07.637Z,1022.25
2018-09-24T09:12:07.847Z,1022.28
2018-09-24T09:13:07.768Z,1022.27
2018-09-24T09:14:08.004Z,1022.28
2018-09-24T09:15:08.351Z,1022.31
2018-09-24T09:16:09.151Z,1022.35
2018-09-24T09:17:09.022Z,1022.35
2018-09-24T09:18:09.175Z,1022.35
2018-09-24T09:19:09.377Z,1022.38
2018-09-24T09:20:09.539Z,1022.36
2018-09-24T09:21:09.574Z,1022.37
2018-09-24T09:22:09.691Z,1022.38
2018-09-24T09:23:09.671Z,1022.39
2018-09-24T09:24:10.350Z,1022.40
2018-09-24T09:25:10.573Z,1022.40
2018-09-24T09:26:10.869Z,1022.40
2018-09-24T09:27:10.982Z,1022.42
2018-09-24T09:28:10.949Z,1022.42
2018-09-24T09:29:11.458Z,1022.41
2018-09-24T09:30:11.916Z,1022.41
2018-09-24T09:31:12.352Z,1022.41
2018-09-24T09:32:12.844Z,1022.38
2018-09-24T09:33:13.309Z,1022.39
2018-09-24T09:34:13.827Z,1022.38
2018-09-24T09:35:14.308Z,1022.38
2018-09-24T09:36:14.615Z,1022.38
2018-09-24T09:37:14.577Z,1022.38
2018-09-24T09:38:15.069Z,1022.36
2018-09-24T09:39:15.587Z,1022.37
2018-09-24T09:40:16.199Z,1022.37
2018-09-24T09:41:16.122Z,1022.38
2018-09-24T09:42:16.197Z,1022.39
2018-09-24T09:43:16.323Z,1022.36
2018-09-24T09:44:16.237Z,1022.36
2018-09-24T09:45:16.438Z,1022.36
2018-09-24T09:46:16.460Z,1022.38
2018-09-24T09:47:16.461Z,1022.39
2018-09-24T09:48:16.974Z,1022.38
2018-09-24T09:49:16.985Z,1022.38
2018-09-24T09:50:17.373Z,1022.37
2018-09-24T09:51:17.309Z,1022.39
2018-09-24T09:52:17.832Z,1022.38
2018-09-24T09:53:19.019Z,1022.37
2018-09-24T09:54:19.247Z,1022.36
2018-09-24T09:55:19.777Z,1022.36
2018-09-24T09:56:19.579Z,1022.33
2018-09-24T09:57:19.999Z,1022.30
2018-09-24T09:58:20.402Z,1022.27
2018-09-24T09:59:20.917Z,1022.29
2018-09-24T10:00:20.901Z,1022.30
2018-09-24T10:01:21.223Z,1022.32
2018-09-24T10:02:21.857Z,1022.30
2018-09-24T10:03:21.661Z,1022.30
2018-09-24T10:04:22.145Z,1022.30
2018-09-24T10:05:22.259Z,1022.31
2018-09-24T10:06:22.389Z,1022.32
2018-09-24T10:07:22.474Z,1022.32
2018-09-24T10:08:22.398Z,1022.35
2018-09-24T10:09:22.660Z,1022.37
2018-09-24T10:10:22.584Z,1022.35
2018-09-24T10:11:23.353Z,1022.34
2018-09-24T10:12:23.729Z,1022.34
2018-09-24T10:13:23.988Z,1022.33
2018-09-24T10:14:24.382Z,1022.34
2018-09-24T10:15:24.399Z,1022.35
2018-09-24T10:16:24.700Z,1022.34
2018-09-24T10:17:24.879Z,1022.32
2018-09-24T10:18:24.892Z,1022.33
2018-09-24T10:19:24.907Z,1022.35
2018-09-24T10:20:24.981Z,1022.34
2018-09-24T10:22:24.987Z,1022.33
2018-09-24T10:23:25.396Z,1022.32
2018-09-24T10:24:26.024Z,1022.33
2018-09-24T10:25:26.210Z,1022.35
2018-09-24T10:26:26.245Z,1022.37
2018-09-24T10:27:26.522Z,1022.36
2018-09-24T10:28:26.617Z,1022.38
2018-09-24T10:29:26.609Z,1022.36
2018-09-24T10:30:27.202Z,1022.36
2018-09-24T10:31:27.564Z,1022.36
2018-09-24T10:32:27.773Z,1022.32
2018-09-24T10:33:27.865Z,1022.30
2018-09-24T10:34:27.766Z,1022.30
2018-09-24T10:35:28.488Z,1022.30
2018-09-24T10:36:28.697Z,1022.30
2018-09-24T10:37:28.614Z,1022.30
2018-09-24T10:38:29.087Z,1022.33
2018-09-24T10:39:29.620Z,1022.32
2018-09-24T10:40:29.569Z,1022.32
2018-09-24T10:41:29.605Z,1022.33
2018-09-24T10:42:30.133Z,1022.33
2018-09-24T10:43:30.133Z,1022.34
2018-09-24T10:44:30.686Z,1022.34
2018-09-24T10:46:30.845Z,1022.33
2018-09-24T10:47:31.030Z,1022.34
2018-09-24T10:48:31.276Z,1022.33
2018-09-24T10:49:31.249Z,1022.33
2018-09-24T10:50:31.669Z,1022.32
2018-09-24T10:51:33.098Z,1022.31
2018-09-24T10:52:32.563Z,1022.31
2018-09-24T10:53:33.668Z,1022.31
2018-09-24T10:54:34.081Z,1022.29
2018-09-24T10:55:34.294Z,1022.27
2018-09-24T10:56:35.022Z,1022.27
2018-09-24T10:57:34.912Z,1022.28
2018-09-24T10:58:35.340Z,1022.30
2018-09-24T10:59:35.806Z,1022.29
2018-09-24T11:00:36.087Z,1022.27
2018-09-24T11:01:36.586Z,1022.26
2018-09-24T11:02:36.733Z,1022.28
2018-09-24T11:03:36.899Z,1022.27
2018-09-24T11:04:37.087Z,1022.26
2018-09-24T11:06:37.203Z,1022.27
2018-09-24T11:07:37.305Z,1022.27
2018-09-24T11:08:37.396Z,1022.27
2018-09-24T11:09:37.553Z,1022.27
2018-09-24T11:10:36.988Z,1022.25
2018-09-24T11:11:37.709Z,1022.25
2018-09-24T11:12:38.083Z,1022.24
2018-09-24T11:13:38.389Z,1022.24
2018-09-24T11:14:38.618Z,1022.25
2018-09-24T11:15:39.119Z,1022.24
2018-09-24T11:16:39.505Z,1022.25
2018-09-24T11:17:39.588Z,1022.26
2018-09-24T11:18:39.510Z,1022.25
2018-09-24T11:19:39.566Z,1022.27
2018-09-24T11:20:39.502Z,1022.29
2018-09-24T11:21:40.084Z,1022.31
2018-09-24T11:22:40.513Z,1022.31
2018-09-24T11:23:40.479Z,1022.29
2018-09-24T11:24:41.027Z,1022.28
2018-09-24T11:25:41.244Z,1022.28
2018-09-24T11:26:41.393Z,1022.25
2018-09-24T11:27:41.420Z,1022.26
2018-09-24T11:28:42.391Z,1022.26
2018-09-24T11:29:42.109Z,1022.25
2018-09-24T11:30:42.532Z,1022.23
2018-09-24T11:31:42.582Z,1022.21
2018-09-24T11:32:42.556Z,1022.19
2018-09-24T11:33:43.252Z,1022.17
2018-09-24T11:34:43.380Z,1022.19
2018-09-24T11:35:43.373Z,1022.19
2018-09-24T11:36:43.789Z,1022.20
2018-09-24T11:37:44.323Z,1022.22
2018-09-24T11:38:44.487Z,1022.24
2018-09-24T11:39:44.438Z,1022.21
2018-09-24T11:40:45.201Z,1022.20
2018-09-24T11:41:45.409Z,1022.20
2018-09-24T11:42:45.417Z,1022.21
2018-09-24T11:43:45.379Z,1022.24
2018-09-24T11:44:45.892Z,1022.25
2018-09-24T11:45:45.894Z,1022.26
2018-09-24T11:46:46.435Z,1022.24
2018-09-24T11:47:46.908Z,1022.22
2018-09-24T11:48:46.846Z,1022.19
2018-09-24T11:49:47.368Z,1022.18
2018-09-24T11:50:47.479Z,1022.18
2018-09-24T11:51:47.476Z,1022.17
2018-09-24T11:52:48.704Z,1022.16
2018-09-24T11:53:48.899Z,1022.16
2018-09-24T11:54:49.220Z,1022.18
2018-09-24T11:55:49.721Z,1022.14
2018-09-24T11:56:49.639Z,1022.14
2018-09-24T11:57:50.255Z,1022.15
2018-09-24T11:58:50.162Z,1022.16
2018-09-24T11:59:50.680Z,1022.15
2018-09-24T12:00:50.891Z,1022.14
2018-09-24T12:01:51.101Z,1022.15
2018-09-24T12:02:51.170Z,1022.12
2018-09-24T12:03:51.253Z,1022.11
2018-09-24T12:04:51.187Z,1022.09
2018-09-24T12:05:51.646Z,1022.09
2018-09-24T12:06:52.151Z,1022.10
2018-09-24T12:07:52.240Z,1022.11
2018-09-24T12:08:52.231Z,1022.14
2018-09-24T12:09:52.443Z,1022.13
2018-09-24T12:10:52.686Z,1022.13
2018-09-24T12:11:53.026Z,1022.14
2018-09-24T12:13:53.422Z,1022.13
2018-09-24T12:14:53.691Z,1022.15
2018-09-24T12:15:53.912Z,1022.11
2018-09-24T12:16:54.061Z,1022.08